Anna Maria, Florida
Current Conditions -  °F | °C
As of 1:53 PM on Saturday 25 Oct 2014 (Local Time) from KSRQ Reporting Station
Clear Clear  
Wind Chill: 78°   Ceiling: Unl
Heat Index: 79°   Visibility: 10mi
Dew Point: 56°   Wind: 12mph
Humidity: 46%   Direction: 340°NNW
Pressure: 29.95"   Gusts: 17mph
Location:  27.53°N, 82.73°W
Report Text: KSRQ 251753Z 34010G15KT 10SM CLR 26/13 A2995 RMK AO2 SLP142 T02560133 10256 20167 58015
Loading
Personal Weather Stations






























Interactive Weather Map
Tropical Storm Tracking
New forecast layout! Learn more

10-Day Weather Forecast

Advertisements
Track Severe Weather on mobile